Flight Track Log - Related Links

Times and Time Zones

All times are in EDT time to prevent confusion due to time zone crossing. See the N1560T flight status page for this flight to view local times or setup timezone preferences in your user account.

Time Position Orientation Groundspeed Altitude Reporting Facility
EDT Latitude Longitude Course Direction KTS MPH feet Rate Location/Type
Fri 11:48:30 AM 43.9253 -91.3186 314° West 137 158 2,800  Level Minneapolis Center
Fri 11:49:32 AM 43.9553 -91.3619 314° West 146 168 4,200 1,258 Climbing Minneapolis Center
Fri 11:50:34 AM 43.9897 -91.3956 325° Northwest 147 169 5,400 1,210 Climbing Minneapolis Center
Fri 11:51:36 AM 44.0386 -91.3847 North 169 194 6,700 1,355 Climbing Minneapolis Center
Fri 11:52:38 AM 44.0856 -91.3706 12° North 166 191 8,200 1,344 Climbing Minneapolis Center
Fri 11:53:41 AM 44.1289 -91.3353 30° Northeast 179 206 9,500 1,200 Climbing Minneapolis Center
Fri 11:54:43 AM 44.1697 -91.2961 35° Northeast 179 206 10,700 1,161 Climbing Minneapolis Center
Fri 11:55:45 AM 44.2067 -91.2569 37° Northeast 182 209 11,900 1,065 Climbing Minneapolis Center
Fri 11:56:47 AM 44.2572 -91.2083 35° Northeast 185 213 12,900 484 Climbing Minneapolis Center
Fri 11:57:49 AM 44.3072 -91.1578 36° Northeast 210 242 12,900 96 Level Minneapolis Center
Fri 11:58:52 AM 44.3658 -91.0978 36° Northeast 230 265 13,100 96 Climbing Minneapolis Center
Fri 11:59:54 AM 44.4169 -91.0458 36° Northeast 230 265 13,100  Level Minneapolis Center
Fri 12:00:56 PM 44.4675 -90.9933 37° Northeast 228 262 13,100  Level Minneapolis Center
Fri 12:01:59 PM 44.5189 -90.9419 35° Northeast 228 262 13,100 -48 Level Minneapolis Center
Fri 12:03:01 PM 44.5769 -90.8825 36° Northeast 226 260 13,000 -48 Descending Minneapolis Center
Fri 12:04:03 PM 44.6300 -90.8272 37° Northeast 227 261 13,000  Level Minneapolis Center
Fri 12:05:05 PM 44.6808 -90.7753 36° Northeast 226 260 13,000  Level Minneapolis Center
Fri 12:06:07 PM 44.7300 -90.7167 40° Northeast 230 265 13,000  Level Minneapolis Center
Fri 12:07:09 PM 44.7783 -90.6561 42° Northeast 233 268 13,000  Level Minneapolis Center
Fri 12:08:11 PM 44.8278 -90.5981 40° Northeast 233 268 13,000  Level Minneapolis Center
Fri 12:09:13 PM 44.8786 -90.5350 41° Northeast 227 261 13,000 -48 Level Minneapolis Center
Fri 12:10:15 PM 44.9328 -90.4700 40° Northeast 227 261 12,900 -48 Descending Minneapolis Center
Fri 12:11:17 PM 44.9714 -90.4219 41° Northeast 230 265 12,900  Level Minneapolis Center
Fri 12:12:19 PM 45.0289 -90.3508 41° Northeast 229 264 12,900  Level Minneapolis Center
Fri 12:13:21 PM 45.0719 -90.2989 40° Northeast 231 266 12,900  Level Minneapolis Center
Fri 12:14:36 PM 45.1383 -90.2175 41° Northeast 227 261 12,900  Level Minneapolis Center
Fri 12:15:38 PM 45.1864 -90.1544 43° Northeast 233 268 12,900  Level Minneapolis Center
Fri 12:16:40 PM 45.2364 -90.0958 40° Northeast 233 268 12,900  Level Minneapolis Center
Fri 12:17:42 PM 45.2842 -90.0372 41° Northeast 230 265 12,900  Level Minneapolis Center
Fri 12:18:44 PM 45.3417 -89.9636 42° Northeast 231 266 12,900 -48 Level Minneapolis Center
Fri 12:19:47 PM 45.3886 -89.9053 41° Northeast 226 260 12,800 -432 Descending Minneapolis Center
Fri 12:20:49 PM 45.4364 -89.8461 41° Northeast 227 261 12,000 -871 Descending Minneapolis Center
Fri 12:21:51 PM 45.4864 -89.7842 41° Northeast 234 269 11,000 -919 Descending Minneapolis Center
Fri 12:22:53 PM 45.5358 -89.7222 41° Northeast 236 272 10,100 -823 Descending Minneapolis Center
Fri 12:23:55 PM 45.5842 -89.6603 42° Northeast 236 272 9,300 -823 Descending Minneapolis Center
Fri 12:24:57 PM 45.6397 -89.5883 42° Northeast 230 265 8,400 -823 Descending Minneapolis Center
Fri 12:25:59 PM 45.6864 -89.5303 41° Northeast 226 260 7,600 -823 Descending Minneapolis Center
Fri 12:27:01 PM 45.7319 -89.4731 41° Northeast 222 255 6,700 -968 Descending Minneapolis Center
Fri 12:28:03 PM 45.7756 -89.4161 42° Northeast 217 250 5,600 -1,065 Descending Minneapolis Center
Fri 12:29:05 PM 45.8192 -89.3611 41° Northeast 214 246 4,500 -823 Descending Minneapolis Center
Fri 12:30:07 PM 45.8561 -89.3117 43° Northeast 198 228 3,900 -528 Descending Minneapolis Center
Fri 12:31:10 PM 45.8886 -89.2433 56° Northeast 182 209 3,400 -240 Descending Minneapolis Center
Fri 12:32:12 PM 45.9169 -89.1917 52° Northeast 172 198 3,400  Level Minneapolis Center
Fri 12:33:14 PM 45.9436 -89.1406 53° Northeast 166 191 3,400  Level Minneapolis Center
Fri 12:34:16 PM 45.9708 -89.0897 52° Northeast 163 188 3,400  Level Minneapolis Center
Fri 12:35:18 PM 46.0031 -89.0522 39° Northeast 163 188 3,400  Level Minneapolis Center
Fri 12:36:20 PM 46.0464 -89.0928 327° Northwest 159 183 3,400 -48 Level Minneapolis Center
Fri 12:37:22 PM 46.0800 -89.1297 323° Northwest 156 180 3,300 -290 Descending Minneapolis Center
Fri 12:38:24 PM 46.1069 -89.1600 322° Northwest 137 158 2,800 -532 Descending Minneapolis Center
Fri 12:39:26 PM 46.1339 -89.1883 324° Northwest 127 146 2,200 -484 Descending Minneapolis Center
Fri 12:40:28 PM 46.1614 -89.2192 322° Northwest 122 140 1,800 -387 Descending Minneapolis Center

Login

Don't have an account? Register now (free) for customized features, flight alerts, and more!